sensor_id;sensor_type;location;lat;lon;timestamp;temperature;humidity
22795;DHT22;11564;50.920;11.612;2023-05-10T00:00:42;11.40;90.20
22795;DHT22;11564;50.920;11.612;2023-05-10T00:03:07;11.50;88.90
22795;DHT22;11564;50.920;11.612;2023-05-10T00:05:33;11.50;88.90
22795;DHT22;11564;50.920;11.612;2023-05-10T00:07:59;11.60;89.00
22795;DHT22;11564;50.920;11.612;2023-05-10T00:10:24;11.70;89.00
22795;DHT22;11564;50.920;11.612;2023-05-10T00:12:50;11.70;87.70
22795;DHT22;11564;50.920;11.612;2023-05-10T00:15:15;11.80;88.00
22795;DHT22;11564;50.920;11.612;2023-05-10T00:17:41;11.80;87.90
22795;DHT22;11564;50.920;11.612;2023-05-10T00:20:07;11.80;86.90
22795;DHT22;11564;50.920;11.612;2023-05-10T00:22:33;11.90;87.00
22795;DHT22;11564;50.920;11.612;2023-05-10T00:24:59;11.90;88.30
22795;DHT22;11564;50.920;11.612;2023-05-10T00:27:25;11.90;86.60
22795;DHT22;11564;50.920;11.612;2023-05-10T00:29:50;12.00;87.20
22795;DHT22;11564;50.920;11.612;2023-05-10T00:32:16;12.00;87.40
22795;DHT22;11564;50.920;11.612;2023-05-10T00:34:42;11.90;88.50
22795;DHT22;11564;50.920;11.612;2023-05-10T00:37:07;11.90;87.10
22795;DHT22;11564;50.920;11.612;2023-05-10T00:39:33;11.90;86.80
22795;DHT22;11564;50.920;11.612;2023-05-10T00:41:59;11.90;88.70
22795;DHT22;11564;50.920;11.612;2023-05-10T00:44:25;11.80;89.70
22795;DHT22;11564;50.920;11.612;2023-05-10T00:46:51;11.70;89.00
22795;DHT22;11564;50.920;11.612;2023-05-10T00:49:17;11.70;90.00
22795;DHT22;11564;50.920;11.612;2023-05-10T00:51:43;11.60;90.00
22795;DHT22;11564;50.920;11.612;2023-05-10T00:54:14;11.60;89.90
22795;DHT22;11564;50.920;11.612;2023-05-10T00:56:40;11.50;90.80
22795;DHT22;11564;50.920;11.612;2023-05-10T00:59:07;11.50;90.70
22795;DHT22;11564;50.920;11.612;2023-05-10T01:01:34;11.40;90.50
22795;DHT22;11564;50.920;11.612;2023-05-10T01:04:00;11.40;90.70
22795;DHT22;11564;50.920;11.612;2023-05-10T01:06:27;11.30;91.10
22795;DHT22;11564;50.920;11.612;2023-05-10T01:08:53;11.20;90.60
22795;DHT22;11564;50.920;11.612;2023-05-10T01:11:18;11.30;91.60
22795;DHT22;11564;50.920;11.612;2023-05-10T01:13:47;11.30;91.50
22795;DHT22;11564;50.920;11.612;2023-05-10T01:16:15;11.20;91.70
22795;DHT22;11564;50.920;11.612;2023-05-10T01:18:41;11.20;91.40
22795;DHT22;11564;50.920;11.612;2023-05-10T01:21:27;11.20;92.00
22795;DHT22;11564;50.920;11.612;2023-05-10T01:32:43;11.20;92.30
22795;DHT22;11564;50.920;11.612;2023-05-10T01:35:32;11.20;92.40
22795;DHT22;11564;50.920;11.612;2023-05-10T01:38:12;11.20;92.40
22795;DHT22;11564;50.920;11.612;2023-05-10T01:41:07;11.30;91.90
22795;DHT22;11564;50.920;11.612;2023-05-10T01:46:23;11.30;91.00
22795;DHT22;11564;50.920;11.612;2023-05-10T01:48:53;11.40;92.00
22795;DHT22;11564;50.920;11.612;2023-05-10T01:51:33;11.60;90.80
22795;DHT22;11564;50.920;11.612;2023-05-10T01:54:03;11.60;91.10
22795;DHT22;11564;50.920;11.612;2023-05-10T01:56:33;11.50;91.30
22795;DHT22;11564;50.920;11.612;2023-05-10T01:59:00;11.50;91.00
22795;DHT22;11564;50.920;11.612;2023-05-10T02:01:30;11.50;91.40
22795;DHT22;11564;50.920;11.612;2023-05-10T02:03:57;11.50;91.90
22795;DHT22;11564;50.920;11.612;2023-05-10T02:06:24;11.50;92.10
22795;DHT22;11564;50.920;11.612;2023-05-10T02:08:52;11.50;92.40
22795;DHT22;11564;50.920;11.612;2023-05-10T02:11:18;11.50;92.30
22795;DHT22;11564;50.920;11.612;2023-05-10T02:13:47;11.50;92.60
22795;DHT22;11564;50.920;11.612;2023-05-10T02:16:16;11.50;92.90
22795;DHT22;11564;50.920;11.612;2023-05-10T02:18:42;11.50;92.90
22795;DHT22;11564;50.920;11.612;2023-05-10T02:21:10;11.50;92.90
22795;DHT22;11564;50.920;11.612;2023-05-10T02:23:37;11.50;93.10
22795;DHT22;11564;50.920;11.612;2023-05-10T02:26:04;11.50;93.20
22795;DHT22;11564;50.920;11.612;2023-05-10T02:28:32;11.50;92.50
22795;DHT22;11564;50.920;11.612;2023-05-10T02:30:58;11.70;90.50
22795;DHT22;11564;50.920;11.612;2023-05-10T02:33:24;11.90;89.80
22795;DHT22;11564;50.920;11.612;2023-05-10T02:35:51;11.90;90.00
22795;DHT22;11564;50.920;11.612;2023-05-10T02:38:19;12.00;89.40
22795;DHT22;11564;50.920;11.612;2023-05-10T02:40:46;12.10;90.40
22795;DHT22;11564;50.920;11.612;2023-05-10T02:43:14;12.10;91.20
22795;DHT22;11564;50.920;11.612;2023-05-10T02:45:41;12.10;91.20
22795;DHT22;11564;50.920;11.612;2023-05-10T02:48:08;12.10;90.80
22795;DHT22;11564;50.920;11.612;2023-05-10T02:50:34;12.10;90.30
22795;DHT22;11564;50.920;11.612;2023-05-10T02:53:14;12.10;90.10
22795;DHT22;11564;50.920;11.612;2023-05-10T02:55:41;12.00;90.80
22795;DHT22;11564;50.920;11.612;2023-05-10T02:58:09;12.00;91.30
22795;DHT22;11564;50.920;11.612;2023-05-10T03:00:34;12.00;91.60
22795;DHT22;11564;50.920;11.612;2023-05-10T03:03:01;12.00;91.10
22795;DHT22;11564;50.920;11.612;2023-05-10T03:05:27;12.00;91.60
22795;DHT22;11564;50.920;11.612;2023-05-10T03:07:53;12.00;91.60
22795;DHT22;11564;50.920;11.612;2023-05-10T03:10:22;12.00;92.00
22795;DHT22;11564;50.920;11.612;2023-05-10T03:13:33;11.90;92.20
22795;DHT22;11564;50.920;11.612;2023-05-10T03:16:07;11.90;92.20
22795;DHT22;11564;50.920;11.612;2023-05-10T03:18:54;11.80;92.60
22795;DHT22;11564;50.920;11.612;2023-05-10T03:21:22;11.80;92.60
22795;DHT22;11564;50.920;11.612;2023-05-10T03:24:03;11.80;92.60
22795;DHT22;11564;50.920;11.612;2023-05-10T03:26:31;11.80;92.80
22795;DHT22;11564;50.920;11.612;2023-05-10T03:28:57;11.80;91.50
22795;DHT22;11564;50.920;11.612;2023-05-10T03:31:24;11.80;92.60
22795;DHT22;11564;50.920;11.612;2023-05-10T03:33:51;11.80;92.70
22795;DHT22;11564;50.920;11.612;2023-05-10T03:36:18;11.90;92.90
22795;DHT22;11564;50.920;11.612;2023-05-10T03:38:44;11.90;92.40
22795;DHT22;11564;50.920;11.612;2023-05-10T03:41:09;11.90;92.80
22795;DHT22;11564;50.920;11.612;2023-05-10T03:43:35;12.00;93.00
22795;DHT22;11564;50.920;11.612;2023-05-10T03:46:03;12.00;91.90
22795;DHT22;11564;50.920;11.612;2023-05-10T03:48:29;12.00;92.40
22795;DHT22;11564;50.920;11.612;2023-05-10T03:50:54;12.10;92.20
22795;DHT22;11564;50.920;11.612;2023-05-10T03:53:20;12.10;92.00
22795;DHT22;11564;50.920;11.612;2023-05-10T03:55:45;12.20;91.30
22795;DHT22;11564;50.920;11.612;2023-05-10T03:58:11;12.20;91.40
22795;DHT22;11564;50.920;11.612;2023-05-10T04:00:37;12.30;92.10
22795;DHT22;11564;50.920;11.612;2023-05-10T04:03:09;12.30;91.80
22795;DHT22;11564;50.920;11.612;2023-05-10T04:05:35;12.30;92.10
22795;DHT22;11564;50.920;11.612;2023-05-10T04:08:00;12.40;90.10
22795;DHT22;11564;50.920;11.612;2023-05-10T04:10:26;12.50;89.90
22795;DHT22;11564;50.920;11.612;2023-05-10T04:12:52;12.50;90.10
22795;DHT22;11564;50.920;11.612;2023-05-10T04:15:17;12.60;90.10
22795;DHT22;11564;50.920;11.612;2023-05-10T04:17:43;12.60;90.10
22795;DHT22;11564;50.920;11.612;2023-05-10T04:20:09;12.70;89.30
22795;DHT22;11564;50.920;11.612;2023-05-10T04:22:35;12.70;88.40
22795;DHT22;11564;50.920;11.612;2023-05-10T04:25:00;12.80;88.10
22795;DHT22;11564;50.920;11.612;2023-05-10T04:27:26;12.90;88.40
22795;DHT22;11564;50.920;11.612;2023-05-10T04:29:52;12.90;90.10
22795;DHT22;11564;50.920;11.612;2023-05-10T04:32:18;13.00;88.70
22795;DHT22;11564;50.920;11.612;2023-05-10T04:34:44;13.00;89.00
22795;DHT22;11564;50.920;11.612;2023-05-10T04:37:09;13.10;89.00
22795;DHT22;11564;50.920;11.612;2023-05-10T04:39:35;13.10;89.10
22795;DHT22;11564;50.920;11.612;2023-05-10T04:42:02;13.10;88.00
22795;DHT22;11564;50.920;11.612;2023-05-10T04:44:28;13.10;88.90
22795;DHT22;11564;50.920;11.612;2023-05-10T04:46:55;13.20;88.30
22795;DHT22;11564;50.920;11.612;2023-05-10T04:49:20;13.20;87.70
22795;DHT22;11564;50.920;11.612;2023-05-10T04:51:47;13.30;88.40
22795;DHT22;11564;50.920;11.612;2023-05-10T04:54:12;13.30;88.50
22795;DHT22;11564;50.920;11.612;2023-05-10T04:56:38;13.30;89.50
22795;DHT22;11564;50.920;11.612;2023-05-10T04:59:03;13.30;89.00
22795;DHT22;11564;50.920;11.612;2023-05-10T05:01:29;13.40;88.10
22795;DHT22;11564;50.920;11.612;2023-05-10T05:03:55;13.50;88.80
22795;DHT22;11564;50.920;11.612;2023-05-10T05:06:20;13.50;87.10
22795;DHT22;11564;50.920;11.612;2023-05-10T05:08:46;13.60;88.00
22795;DHT22;11564;50.920;11.612;2023-05-10T05:11:12;13.60;88.20
22795;DHT22;11564;50.920;11.612;2023-05-10T05:13:37;13.60;88.20
22795;DHT22;11564;50.920;11.612;2023-05-10T05:16:04;13.60;87.80
22795;DHT22;11564;50.920;11.612;2023-05-10T05:18:30;13.70;87.10
22795;DHT22;11564;50.920;11.612;2023-05-10T05:20:56;13.70;88.50
22795;DHT22;11564;50.920;11.612;2023-05-10T05:23:21;13.80;89.70
22795;DHT22;11564;50.920;11.612;2023-05-10T05:25:53;13.80;88.90
22795;DHT22;11564;50.920;11.612;2023-05-10T05:28:19;13.80;88.70
22795;DHT22;11564;50.920;11.612;2023-05-10T05:30:45;13.90;88.80
22795;DHT22;11564;50.920;11.612;2023-05-10T05:33:12;14.00;88.70
22795;DHT22;11564;50.920;11.612;2023-05-10T05:35:38;14.00;88.10
22795;DHT22;11564;50.920;11.612;2023-05-10T05:38:04;14.10;88.10
22795;DHT22;11564;50.920;11.612;2023-05-10T05:40:29;14.30;89.00
22795;DHT22;11564;50.920;11.612;2023-05-10T05:42:55;14.30;89.20
22795;DHT22;11564;50.920;11.612;2023-05-10T05:45:21;14.30;90.20
22795;DHT22;11564;50.920;11.612;2023-05-10T05:47:46;14.30;88.80
22795;DHT22;11564;50.920;11.612;2023-05-10T05:50:12;14.30;89.00
22795;DHT22;11564;50.920;11.612;2023-05-10T05:52:38;14.50;88.90
22795;DHT22;11564;50.920;11.612;2023-05-10T05:55:04;14.40;89.50
22795;DHT22;11564;50.920;11.612;2023-05-10T05:57:30;14.60;90.10
22795;DHT22;11564;50.920;11.612;2023-05-10T05:59:55;14.60;89.60
22795;DHT22;11564;50.920;11.612;2023-05-10T06:02:21;14.60;88.90
22795;DHT22;11564;50.920;11.612;2023-05-10T06:04:47;14.70;90.30
22795;DHT22;11564;50.920;11.612;2023-05-10T06:07:12;14.80;89.50
22795;DHT22;11564;50.920;11.612;2023-05-10T06:09:38;14.80;90.00
22795;DHT22;11564;50.920;11.612;2023-05-10T06:12:04;14.70;89.10
22795;DHT22;11564;50.920;11.612;2023-05-10T06:14:30;14.60;89.10
22795;DHT22;11564;50.920;11.612;2023-05-10T06:16:56;14.60;89.80
22795;DHT22;11564;50.920;11.612;2023-05-10T06:19:21;14.80;89.80
22795;DHT22;11564;50.920;11.612;2023-05-10T06:21:47;14.90;89.60
22795;DHT22;11564;50.920;11.612;2023-05-10T06:24:12;14.80;89.40
22795;DHT22;11564;50.920;11.612;2023-05-10T06:26:38;14.90;89.30
22795;DHT22;11564;50.920;11.612;2023-05-10T06:29:04;15.00;89.40
22795;DHT22;11564;50.920;11.612;2023-05-10T06:31:29;15.00;89.40
22795;DHT22;11564;50.920;11.612;2023-05-10T06:33:55;15.00;89.30
22795;DHT22;11564;50.920;11.612;2023-05-10T06:36:21;15.10;89.70
22795;DHT22;11564;50.920;11.612;2023-05-10T06:38:47;15.10;89.60
22795;DHT22;11564;50.920;11.612;2023-05-10T06:41:12;15.00;89.50
22795;DHT22;11564;50.920;11.612;2023-05-10T06:43:38;15.00;90.00
22795;DHT22;11564;50.920;11.612;2023-05-10T06:46:06;14.80;90.10
22795;DHT22;11564;50.920;11.612;2023-05-10T06:48:32;14.80;90.50
22795;DHT22;11564;50.920;11.612;2023-05-10T06:50:58;14.70;90.30
22795;DHT22;11564;50.920;11.612;2023-05-10T06:53:23;14.60;91.00
22795;DHT22;11564;50.920;11.612;2023-05-10T06:55:49;14.50;91.20
22795;DHT22;11564;50.920;11.612;2023-05-10T06:58:15;14.40;91.40
22795;DHT22;11564;50.920;11.612;2023-05-10T07:00:41;14.30;91.50
22795;DHT22;11564;50.920;11.612;2023-05-10T07:03:09;14.30;92.10
22795;DHT22;11564;50.920;11.612;2023-05-10T07:05:35;14.30;92.30
22795;DHT22;11564;50.920;11.612;2023-05-10T07:08:01;14.30;92.50
22795;DHT22;11564;50.920;11.612;2023-05-10T07:10:27;14.30;93.10
22795;DHT22;11564;50.920;11.612;2023-05-10T07:12:52;14.60;92.80
22795;DHT22;11564;50.920;11.612;2023-05-10T07:15:18;14.70;92.90
22795;DHT22;11564;50.920;11.612;2023-05-10T07:17:44;14.80;93.00
22795;DHT22;11564;50.920;11.612;2023-05-10T07:20:09;14.70;93.70
22795;DHT22;11564;50.920;11.612;2023-05-10T07:22:35;14.90;94.10
22795;DHT22;11564;50.920;11.612;2023-05-10T07:25:01;14.90;93.90
22795;DHT22;11564;50.920;11.612;2023-05-10T07:27:27;14.90;93.90
22795;DHT22;11564;50.920;11.612;2023-05-10T07:29:53;15.10;94.20
22795;DHT22;11564;50.920;11.612;2023-05-10T07:32:20;15.20;93.20
22795;DHT22;11564;50.920;11.612;2023-05-10T07:34:45;15.30;93.70
22795;DHT22;11564;50.920;11.612;2023-05-10T07:37:11;15.30;93.60
22795;DHT22;11564;50.920;11.612;2023-05-10T07:39:37;15.10;94.20
22795;DHT22;11564;50.920;11.612;2023-05-10T07:42:03;15.00;94.90
22795;DHT22;11564;50.920;11.612;2023-05-10T07:44:28;15.20;96.00
22795;DHT22;11564;50.920;11.612;2023-05-10T07:46:54;15.40;96.20
22795;DHT22;11564;50.920;11.612;2023-05-10T07:49:20;15.50;96.20
22795;DHT22;11564;50.920;11.612;2023-05-10T07:51:46;15.60;95.80
22795;DHT22;11564;50.920;11.612;2023-05-10T07:54:12;15.80;96.00
22795;DHT22;11564;50.920;11.612;2023-05-10T07:56:38;15.80;95.70
22795;DHT22;11564;50.920;11.612;2023-05-10T07:59:04;15.80;95.60
22795;DHT22;11564;50.920;11.612;2023-05-10T08:01:33;16.00;96.00
22795;DHT22;11564;50.920;11.612;2023-05-10T08:03:59;15.90;96.00
22795;DHT22;11564;50.920;11.612;2023-05-10T08:06:25;16.10;96.20
22795;DHT22;11564;50.920;11.612;2023-05-10T08:08:55;16.30;95.80
22795;DHT22;11564;50.920;11.612;2023-05-10T08:11:21;16.30;95.70
22795;DHT22;11564;50.920;11.612;2023-05-10T08:13:49;16.60;96.10
22795;DHT22;11564;50.920;11.612;2023-05-10T08:16:15;16.80;96.00
22795;DHT22;11564;50.920;11.612;2023-05-10T08:18:41;16.90;96.30
22795;DHT22;11564;50.920;11.612;2023-05-10T08:21:06;17.30;96.20
22795;DHT22;11564;50.920;11.612;2023-05-10T08:23:32;17.10;94.50
22795;DHT22;11564;50.920;11.612;2023-05-10T08:25:58;16.70;94.20
22795;DHT22;11564;50.920;11.612;2023-05-10T08:28:25;16.40;96.10
22795;DHT22;11564;50.920;11.612;2023-05-10T08:30:51;16.80;97.00
22795;DHT22;11564;50.920;11.612;2023-05-10T08:33:18;16.70;95.60
22795;DHT22;11564;50.920;11.612;2023-05-10T08:35:44;16.70;95.80
22795;DHT22;11564;50.920;11.612;2023-05-10T08:38:09;16.80;97.30
22795;DHT22;11564;50.920;11.612;2023-05-10T08:40:37;16.50;95.70
22795;DHT22;11564;50.920;11.612;2023-05-10T08:43:08;16.70;96.60
22795;DHT22;11564;50.920;11.612;2023-05-10T08:45:39;16.70;96.30
22795;DHT22;11564;50.920;11.612;2023-05-10T08:48:07;16.70;96.80
22795;DHT22;11564;50.920;11.612;2023-05-10T08:50:35;16.30;97.00
22795;DHT22;11564;50.920;11.612;2023-05-10T08:53:05;16.30;97.00
22795;DHT22;11564;50.920;11.612;2023-05-10T08:55:32;16.30;97.20
22795;DHT22;11564;50.920;11.612;2023-05-10T08:57:59;16.30;96.90
22795;DHT22;11564;50.920;11.612;2023-05-10T09:00:26;16.10;97.80
22795;DHT22;11564;50.920;11.612;2023-05-10T09:02:51;16.10;98.20
22795;DHT22;11564;50.920;11.612;2023-05-10T09:05:17;16.10;98.20
22795;DHT22;11564;50.920;11.612;2023-05-10T09:07:43;16.60;98.00
22795;DHT22;11564;50.920;11.612;2023-05-10T09:10:11;16.90;98.90
22795;DHT22;11564;50.920;11.612;2023-05-10T09:12:37;17.20;98.70
22795;DHT22;11564;50.920;11.612;2023-05-10T09:15:04;16.60;97.80
22795;DHT22;11564;50.920;11.612;2023-05-10T09:17:30;16.60;97.60
22795;DHT22;11564;50.920;11.612;2023-05-10T09:20:03;17.00;98.70
22795;DHT22;11564;50.920;11.612;2023-05-10T09:22:30;17.40;98.60
22795;DHT22;11564;50.920;11.612;2023-05-10T09:25:15;17.70;97.90
22795;DHT22;11564;50.920;11.612;2023-05-10T09:27:44;18.10;97.60
22795;DHT22;11564;50.920;11.612;2023-05-10T09:30:14;18.30;97.30
22795;DHT22;11564;50.920;11.612;2023-05-10T09:32:42;18.10;97.40
22795;DHT22;11564;50.920;11.612;2023-05-10T09:35:13;18.30;97.80
22795;DHT22;11564;50.920;11.612;2023-05-10T09:37:46;18.10;97.90
22795;DHT22;11564;50.920;11.612;2023-05-10T09:40:20;18.20;97.70
22795;DHT22;11564;50.920;11.612;2023-05-10T09:45:20;17.70;96.70
22795;DHT22;11564;50.920;11.612;2023-05-10T09:47:46;17.60;97.20
22795;DHT22;11564;50.920;11.612;2023-05-10T09:50:12;18.30;97.30
22795;DHT22;11564;50.920;11.612;2023-05-10T09:52:52;18.70;96.70
22795;DHT22;11564;50.920;11.612;2023-05-10T09:55:20;18.10;96.20
22795;DHT22;11564;50.920;11.612;2023-05-10T09:57:47;18.00;97.30
22795;DHT22;11564;50.920;11.612;2023-05-10T10:00:18;18.50;97.40
22795;DHT22;11564;50.920;11.612;2023-05-10T10:02:54;18.40;96.00
22795;DHT22;11564;50.920;11.612;2023-05-10T10:05:20;18.50;96.10
22795;DHT22;11564;50.920;11.612;2023-05-10T10:07:45;18.60;96.20
22795;DHT22;11564;50.920;11.612;2023-05-10T10:10:12;18.10;96.60
22795;DHT22;11564;50.920;11.612;2023-05-10T10:12:39;18.40;96.70
22795;DHT22;11564;50.920;11.612;2023-05-10T10:15:07;18.90;97.30
22795;DHT22;11564;50.920;11.612;2023-05-10T10:17:35;18.90;96.00
22795;DHT22;11564;50.920;11.612;2023-05-10T10:20:03;19.10;95.30
22795;DHT22;11564;50.920;11.612;2023-05-10T10:22:29;19.20;95.80
22795;DHT22;11564;50.920;11.612;2023-05-10T10:24:55;19.20;96.10
22795;DHT22;11564;50.920;11.612;2023-05-10T10:27:24;19.10;96.50
22795;DHT22;11564;50.920;11.612;2023-05-10T10:30:00;19.00;96.70
22795;DHT22;11564;50.920;11.612;2023-05-10T10:35:08;18.50;95.70
22795;DHT22;11564;50.920;11.612;2023-05-10T10:37:47;18.30;96.10
22795;DHT22;11564;50.920;11.612;2023-05-10T10:40:29;18.10;96.20
22795;DHT22;11564;50.920;11.612;2023-05-10T10:42:56;17.80;96.50
22795;DHT22;11564;50.920;11.612;2023-05-10T10:45:23;17.90;96.90
22795;DHT22;11564;50.920;11.612;2023-05-10T10:48:18;17.90;96.70
22795;DHT22;11564;50.920;11.612;2023-05-10T10:50:45;17.80;97.10
22795;DHT22;11564;50.920;11.612;2023-05-10T10:53:11;17.50;97.50
22795;DHT22;11564;50.920;11.612;2023-05-10T10:55:46;17.40;98.40
22795;DHT22;11564;50.920;11.612;2023-05-10T10:58:32;17.40;98.20
22795;DHT22;11564;50.920;11.612;2023-05-10T11:01:15;17.10;98.40
22795;DHT22;11564;50.920;11.612;2023-05-10T11:04:39;16.90;98.80
22795;DHT22;11564;50.920;11.612;2023-05-10T11:06:40;16.70;99.00
22795;DHT22;11564;50.920;11.612;2023-05-10T11:09:09;16.50;99.90
22795;DHT22;11564;50.920;11.612;2023-05-10T11:11:50;16.80;99.90
22795;DHT22;11564;50.920;11.612;2023-05-10T11:14:20;16.90;99.90
22795;DHT22;11564;50.920;11.612;2023-05-10T11:16:46;17.20;99.90
22795;DHT22;11564;50.920;11.612;2023-05-10T11:19:13;17.40;99.90
22795;DHT22;11564;50.920;11.612;2023-05-10T11:24:16;17.40;99.10
22795;DHT22;11564;50.920;11.612;2023-05-10T11:26:42;17.10;99.30
22795;DHT22;11564;50.920;11.612;2023-05-10T11:29:08;16.80;99.60
22795;DHT22;11564;50.920;11.612;2023-05-10T11:31:35;16.50;99.60
22795;DHT22;11564;50.920;11.612;2023-05-10T11:34:06;16.10;99.90
22795;DHT22;11564;50.920;11.612;2023-05-10T11:36:34;15.80;99.90
22795;DHT22;11564;50.920;11.612;2023-05-10T11:39:00;15.80;99.90
22795;DHT22;11564;50.920;11.612;2023-05-10T11:41:27;15.20;99.90
22795;DHT22;11564;50.920;11.612;2023-05-10T11:43:54;15.20;99.90
22795;DHT22;11564;50.920;11.612;2023-05-10T11:46:21;15.10;99.90
22795;DHT22;11564;50.920;11.612;2023-05-10T11:48:50;14.90;99.90
22795;DHT22;11564;50.920;11.612;2023-05-10T11:51:23;14.90;99.90
22795;DHT22;11564;50.920;11.612;2023-05-10T11:53:50;14.80;99.90
22795;DHT22;11564;50.920;11.612;2023-05-10T11:56:16;14.90;99.90
22795;DHT22;11564;50.920;11.612;2023-05-10T11:58:42;15.00;99.90
22795;DHT22;11564;50.920;11.612;2023-05-10T12:01:08;15.20;99.90
22795;DHT22;11564;50.920;11.612;2023-05-10T12:03:34;15.20;99.90
22795;DHT22;11564;50.920;11.612;2023-05-10T12:06:01;15.40;99.90
22795;DHT22;11564;50.920;11.612;2023-05-10T12:08:28;15.30;99.90
22795;DHT22;11564;50.920;11.612;2023-05-10T12:11:06;15.20;99.90
22795;DHT22;11564;50.920;11.612;2023-05-10T12:13:32;15.20;99.90
22795;DHT22;11564;50.920;11.612;2023-05-10T12:15:58;15.20;99.90
22795;DHT22;11564;50.920;11.612;2023-05-10T12:18:24;15.20;99.90
22795;DHT22;11564;50.920;11.612;2023-05-10T12:20:52;15.40;99.90
22795;DHT22;11564;50.920;11.612;2023-05-10T12:23:20;15.80;99.90
22795;DHT22;11564;50.920;11.612;2023-05-10T12:25:45;16.00;99.90
22795;DHT22;11564;50.920;11.612;2023-05-10T12:28:11;16.20;99.90
22795;DHT22;11564;50.920;11.612;2023-05-10T12:30:37;16.10;99.40
22795;DHT22;11564;50.920;11.612;2023-05-10T12:33:13;16.40;99.40
22795;DHT22;11564;50.920;11.612;2023-05-10T12:35:47;16.70;99.90
22795;DHT22;11564;50.920;11.612;2023-05-10T12:38:35;16.60;99.90
22795;DHT22;11564;50.920;11.612;2023-05-10T12:41:11;17.00;99.90
22795;DHT22;11564;50.920;11.612;2023-05-10T12:43:38;17.60;99.20
22795;DHT22;11564;50.920;11.612;2023-05-10T12:46:09;18.10;98.60
22795;DHT22;11564;50.920;11.612;2023-05-10T12:48:36;19.10;97.90
22795;DHT22;11564;50.920;11.612;2023-05-10T12:51:02;19.60;96.80
22795;DHT22;11564;50.920;11.612;2023-05-10T12:53:29;20.60;95.50
22795;DHT22;11564;50.920;11.612;2023-05-10T12:55:55;20.90;95.00
22795;DHT22;11564;50.920;11.612;2023-05-10T12:58:20;21.80;94.20
22795;DHT22;11564;50.920;11.612;2023-05-10T13:00:46;22.40;93.30
22795;DHT22;11564;50.920;11.612;2023-05-10T13:03:12;22.20;92.00
22795;DHT22;11564;50.920;11.612;2023-05-10T13:05:38;21.90;92.80
22795;DHT22;11564;50.920;11.612;2023-05-10T13:08:04;21.90;91.90
22795;DHT22;11564;50.920;11.612;2023-05-10T13:10:30;20.70;92.30
22795;DHT22;11564;50.920;11.612;2023-05-10T13:12:57;20.30;94.10
22795;DHT22;11564;50.920;11.612;2023-05-10T13:15:23;19.90;93.60
22795;DHT22;11564;50.920;11.612;2023-05-10T13:17:48;18.60;94.80
22795;DHT22;11564;50.920;11.612;2023-05-10T13:20:14;17.80;96.20
22795;DHT22;11564;50.920;11.612;2023-05-10T13:22:41;17.50;97.10
22795;DHT22;11564;50.920;11.612;2023-05-10T13:25:07;17.40;98.00
22795;DHT22;11564;50.920;11.612;2023-05-10T13:27:33;17.30;98.40
22795;DHT22;11564;50.920;11.612;2023-05-10T13:29:59;16.50;99.90
22795;DHT22;11564;50.920;11.612;2023-05-10T13:32:25;15.90;99.90
22795;DHT22;11564;50.920;11.612;2023-05-10T13:34:51;15.90;99.90
22795;DHT22;11564;50.920;11.612;2023-05-10T13:37:17;15.70;99.90
22795;DHT22;11564;50.920;11.612;2023-05-10T13:39:43;15.90;99.90
22795;DHT22;11564;50.920;11.612;2023-05-10T13:42:08;16.20;99.90
22795;DHT22;11564;50.920;11.612;2023-05-10T13:44:34;16.10;99.90
22795;DHT22;11564;50.920;11.612;2023-05-10T13:47:01;16.10;99.90
22795;DHT22;11564;50.920;11.612;2023-05-10T13:49:27;15.90;99.90
22795;DHT22;11564;50.920;11.612;2023-05-10T13:51:52;15.90;99.90
22795;DHT22;11564;50.920;11.612;2023-05-10T13:54:18;16.10;99.90
22795;DHT22;11564;50.920;11.612;2023-05-10T13:56:45;16.30;99.90
22795;DHT22;11564;50.920;11.612;2023-05-10T13:59:12;16.50;99.90
22795;DHT22;11564;50.920;11.612;2023-05-10T14:01:39;16.70;99.90
22795;DHT22;11564;50.920;11.612;2023-05-10T14:04:05;16.70;99.90
22795;DHT22;11564;50.920;11.612;2023-05-10T14:06:32;17.00;99.90
22795;DHT22;11564;50.920;11.612;2023-05-10T14:08:57;17.10;99.90
22795;DHT22;11564;50.920;11.612;2023-05-10T14:11:23;17.40;99.90
22795;DHT22;11564;50.920;11.612;2023-05-10T14:13:49;17.80;99.90
22795;DHT22;11564;50.920;11.612;2023-05-10T14:16:14;18.00;99.90
22795;DHT22;11564;50.920;11.612;2023-05-10T14:18:40;18.20;99.90
22795;DHT22;11564;50.920;11.612;2023-05-10T14:21:06;18.30;99.90
22795;DHT22;11564;50.920;11.612;2023-05-10T14:23:31;18.60;99.90
22795;DHT22;11564;50.920;11.612;2023-05-10T14:25:57;18.90;99.90
22795;DHT22;11564;50.920;11.612;2023-05-10T14:28:23;19.00;99.90
22795;DHT22;11564;50.920;11.612;2023-05-10T14:30:50;19.20;99.90
22795;DHT22;11564;50.920;11.612;2023-05-10T14:33:16;19.70;99.20
22795;DHT22;11564;50.920;11.612;2023-05-10T14:35:42;20.20;98.90
22795;DHT22;11564;50.920;11.612;2023-05-10T14:38:08;21.00;97.50
22795;DHT22;11564;50.920;11.612;2023-05-10T14:40:33;21.70;95.50
22795;DHT22;11564;50.920;11.612;2023-05-10T14:43:00;22.50;94.90
22795;DHT22;11564;50.920;11.612;2023-05-10T14:45:26;23.40;91.90
22795;DHT22;11564;50.920;11.612;2023-05-10T14:47:51;23.80;90.30
22795;DHT22;11564;50.920;11.612;2023-05-10T14:50:17;25.00;88.20
22795;DHT22;11564;50.920;11.612;2023-05-10T14:52:43;25.80;84.30
22795;DHT22;11564;50.920;11.612;2023-05-10T14:55:09;26.40;81.60
22795;DHT22;11564;50.920;11.612;2023-05-10T14:57:35;29.10;75.00
22795;DHT22;11564;50.920;11.612;2023-05-10T15:00:01;29.60;70.30
22795;DHT22;11564;50.920;11.612;2023-05-10T15:02:27;29.90;66.50
22795;DHT22;11564;50.920;11.612;2023-05-10T15:04:52;29.70;67.60
22795;DHT22;11564;50.920;11.612;2023-05-10T15:07:18;27.10;70.30
22795;DHT22;11564;50.920;11.612;2023-05-10T15:09:44;25.90;74.20
22795;DHT22;11564;50.920;11.612;2023-05-10T15:12:11;26.50;72.90
22795;DHT22;11564;50.920;11.612;2023-05-10T15:14:37;26.10;73.90
22795;DHT22;11564;50.920;11.612;2023-05-10T15:17:03;23.90;77.90
22795;DHT22;11564;50.920;11.612;2023-05-10T15:19:28;23.40;79.50
22795;DHT22;11564;50.920;11.612;2023-05-10T15:21:55;22.60;82.60
22795;DHT22;11564;50.920;11.612;2023-05-10T15:24:21;21.30;85.50
22795;DHT22;11564;50.920;11.612;2023-05-10T15:26:47;20.70;89.10
22795;DHT22;11564;50.920;11.612;2023-05-10T15:29:13;20.90;90.20
22795;DHT22;11564;50.920;11.612;2023-05-10T15:31:45;21.20;90.40
22795;DHT22;11564;50.920;11.612;2023-05-10T15:34:11;21.00;90.10
22795;DHT22;11564;50.920;11.612;2023-05-10T15:36:37;20.30;90.40